Terminal Aerodrome Forecast
Issued by NWS Wilmington, OH

Home | Current Version | Previous Version | Text Only | Print | Product List | Glossary On
Versions: 1 2 3 4 5 6 7 8 9 10 11 12 13 14 15 16 17 18 19 20 21 22
000
FTUS41 KILN 051700
TAFILN
TAF
KILN 051720Z 0518/0618 08004KT P6SM SCT150 OVC250
     FM060100 VRB03KT P6SM FEW050 SCT150 BKN250
     FM061300 21006KT P6SM SCT040=

USA.gov is the U.S. government's official web portal to all federal, state and local government web resources and services.